sensor_id;sensor_type;location;lat;lon;timestamp;pressure;altitude;pressure_sealevel;temperature;humidity
788;BME280;16074;42.708;23.312;2022-09-09T00:01:48;143321.72;;;20.69;64.07
788;BME280;16074;42.708;23.312;2022-09-09T00:04:25;143303.50;;;20.62;64.36
788;BME280;16074;42.708;23.312;2022-09-09T00:07:01;143298.63;;;20.60;64.66
788;BME280;16074;42.708;23.312;2022-09-09T00:09:36;143302.25;;;20.61;65.27
788;BME280;16074;42.708;23.312;2022-09-09T00:12:11;143296.22;;;20.59;65.47
788;BME280;16074;42.708;23.312;2022-09-09T00:14:47;143274.34;;;20.50;65.38
788;BME280;16074;42.708;23.312;2022-09-09T00:17:35;143267.03;;;20.47;65.77
788;BME280;16074;42.708;23.312;2022-09-09T00:20:12;143260.94;;;20.44;66.16
788;BME280;16074;42.708;23.312;2022-09-09T00:22:46;143256.06;;;20.42;66.57
788;BME280;16074;42.708;23.312;2022-09-09T00:25:23;143234.25;;;20.34;65.94
788;BME280;16074;42.708;23.312;2022-09-09T00:27:54;143237.88;;;20.35;66.07
788;BME280;16074;42.708;23.312;2022-09-09T00:30:24;143231.81;;;20.33;66.22
788;BME280;16074;42.708;23.312;2022-09-09T00:32:54;143228.16;;;20.31;66.92
788;BME280;16074;42.708;23.312;2022-09-09T00:35:27;143216.00;;;20.26;67.72
788;BME280;16074;42.708;23.312;2022-09-09T00:38:03;143205.09;;;20.22;68.68
788;BME280;16074;42.708;23.312;2022-09-09T00:40:41;143178.34;;;20.11;69.34
788;BME280;16074;42.708;23.312;2022-09-09T00:43:26;143174.75;;;20.09;69.20
788;BME280;16074;42.708;23.312;2022-09-09T00:46:18;143160.16;;;20.03;68.92
788;BME280;16074;42.708;23.312;2022-09-09T00:48:56;143162.59;;;20.04;69.11
788;BME280;16074;42.708;23.312;2022-09-09T00:51:36;143160.16;;;20.03;69.45
788;BME280;16074;42.708;23.312;2022-09-09T00:54:28;143157.72;;;20.02;69.56
788;BME280;16074;42.708;23.312;2022-09-09T00:57:10;143150.44;;;19.99;69.44
788;BME280;16074;42.708;23.312;2022-09-09T00:59:46;143145.53;;;19.97;69.63
788;BME280;16074;42.708;23.312;2022-09-09T01:02:22;143141.88;;;19.96;69.43
788;BME280;16074;42.708;23.312;2022-09-09T01:04:55;143134.59;;;19.93;69.43
788;BME280;16074;42.708;23.312;2022-09-09T01:07:28;143130.97;;;19.91;69.66
788;BME280;16074;42.708;23.312;2022-09-09T01:09:58;143126.09;;;19.89;69.61
788;BME280;16074;42.708;23.312;2022-09-09T01:12:34;143116.38;;;19.85;70.17
788;BME280;16074;42.708;23.312;2022-09-09T01:15:10;143088.47;;;19.74;69.94
788;BME280;16074;42.708;23.312;2022-09-09T01:17:55;143082.38;;;19.71;70.36
788;BME280;16074;42.708;23.312;2022-09-09T01:20:29;143093.34;;;19.76;70.50
788;BME280;16074;42.708;23.312;2022-09-09T01:23:15;143069.03;;;19.66;70.77
788;BME280;16074;42.708;23.312;2022-09-09T01:26:15;143070.22;;;19.66;70.55
788;BME280;16074;42.708;23.312;2022-09-09T01:28:47;143060.53;;;19.62;70.52
788;BME280;16074;42.708;23.312;2022-09-09T01:31:19;143061.75;;;19.63;70.94
788;BME280;16074;42.708;23.312;2022-09-09T01:33:48;143048.38;;;19.57;71.45
788;BME280;16074;42.708;23.312;2022-09-09T01:36:26;143041.13;;;19.54;71.19
788;BME280;16074;42.708;23.312;2022-09-09T01:38:57;143007.13;;;19.40;71.57
788;BME280;16074;42.708;23.312;2022-09-09T01:41:28;143030.19;;;19.50;72.23
788;BME280;16074;42.708;23.312;2022-09-09T01:44:03;143014.44;;;19.43;72.29
788;BME280;16074;42.708;23.312;2022-09-09T01:46:33;143020.47;;;19.46;72.40
788;BME280;16074;42.708;23.312;2022-09-09T01:49:05;143009.56;;;19.41;72.59
788;BME280;16074;42.708;23.312;2022-09-09T01:51:36;143004.72;;;19.39;72.94
788;BME280;16074;42.708;23.312;2022-09-09T01:54:08;143009.56;;;19.41;72.71
788;BME280;16074;42.708;23.312;2022-09-09T01:56:45;142999.84;;;19.37;72.93
788;BME280;16074;42.708;23.312;2022-09-09T01:59:28;142998.63;;;19.37;73.33
788;BME280;16074;42.708;23.312;2022-09-09T02:02:10;143001.03;;;19.38;73.81
788;BME280;16074;42.708;23.312;2022-09-09T02:04:47;142988.91;;;19.33;74.16
788;BME280;16074;42.708;23.312;2022-09-09T02:07:30;142959.81;;;19.21;74.63
788;BME280;16074;42.708;23.312;2022-09-09T02:10:09;142965.84;;;19.23;75.16
788;BME280;16074;42.708;23.312;2022-09-09T02:12:46;142959.81;;;19.21;74.96
788;BME280;16074;42.708;23.312;2022-09-09T02:15:20;142948.88;;;19.17;75.39
788;BME280;16074;42.708;23.312;2022-09-09T02:17:52;142954.97;;;19.19;75.51
788;BME280;16074;42.708;23.312;2022-09-09T02:20:22;142950.09;;;19.17;75.87
788;BME280;16074;42.708;23.312;2022-09-09T02:22:57;142930.63;;;19.09;75.83
788;BME280;16074;42.708;23.312;2022-09-09T02:25:28;142942.81;;;19.14;76.29
788;BME280;16074;42.708;23.312;2022-09-09T02:28:08;142951.28;;;19.18;76.49
788;BME280;16074;42.708;23.312;2022-09-09T02:30:38;142945.25;;;19.15;76.61
788;BME280;16074;42.708;23.312;2022-09-09T02:33:09;142937.91;;;19.12;76.69
788;BME280;16074;42.708;23.312;2022-09-09T02:35:50;142923.34;;;19.06;77.19
788;BME280;16074;42.708;23.312;2022-09-09T02:38:26;142919.69;;;19.05;76.77
788;BME280;16074;42.708;23.312;2022-09-09T02:41:03;142891.78;;;18.93;77.17
788;BME280;16074;42.708;23.312;2022-09-09T02:43:33;142909.97;;;19.01;77.24
788;BME280;16074;42.708;23.312;2022-09-09T02:46:12;142902.75;;;18.98;77.17
788;BME280;16074;42.708;23.312;2022-09-09T02:48:52;142869.94;;;18.84;77.41
788;BME280;16074;42.708;23.312;2022-09-09T02:51:31;142865.09;;;18.82;77.63
788;BME280;16074;42.708;23.312;2022-09-09T02:54:09;142877.22;;;18.87;77.53
788;BME280;16074;42.708;23.312;2022-09-09T02:56:43;142877.22;;;18.87;76.99
788;BME280;16074;42.708;23.312;2022-09-09T02:59:16;142877.22;;;18.87;77.70
788;BME280;16074;42.708;23.312;2022-09-09T03:01:45;142866.34;;;18.83;78.08
788;BME280;16074;42.708;23.312;2022-09-09T03:04:14;142865.09;;;18.82;78.21
788;BME280;16074;42.708;23.312;2022-09-09T03:06:42;142865.09;;;18.82;77.93
788;BME280;16074;42.708;23.312;2022-09-09T03:09:17;142869.94;;;18.84;78.09
788;BME280;16074;42.708;23.312;2022-09-09T03:11:45;142868.75;;;18.84;77.75
788;BME280;16074;42.708;23.312;2022-09-09T03:14:16;142856.63;;;18.79;78.13
788;BME280;16074;42.708;23.312;2022-09-09T03:16:48;142862.66;;;18.81;78.32
788;BME280;16074;42.708;23.312;2022-09-09T03:19:16;142861.47;;;18.81;78.16
788;BME280;16074;42.708;23.312;2022-09-09T03:21:45;142861.47;;;18.81;78.21
788;BME280;16074;42.708;23.312;2022-09-09T03:24:13;142871.19;;;18.85;77.68
788;BME280;16074;42.708;23.312;2022-09-09T03:26:42;142863.91;;;18.82;77.74
788;BME280;16074;42.708;23.312;2022-09-09T03:29:17;142849.34;;;18.76;77.81
788;BME280;16074;42.708;23.312;2022-09-09T03:31:45;142851.78;;;18.77;77.92
788;BME280;16074;42.708;23.312;2022-09-09T03:34:14;142848.09;;;18.75;77.88
788;BME280;16074;42.708;23.312;2022-09-09T03:36:42;142828.75;;;18.67;78.05
788;BME280;16074;42.708;23.312;2022-09-09T03:39:10;142829.94;;;18.68;77.78
788;BME280;16074;42.708;23.312;2022-09-09T03:41:41;142805.66;;;18.58;77.71
788;BME280;16074;42.708;23.312;2022-09-09T03:44:11;142816.59;;;18.62;77.55
788;BME280;16074;42.708;23.312;2022-09-09T03:46:42;142800.81;;;18.56;77.99
788;BME280;16074;42.708;23.312;2022-09-09T03:49:10;142795.94;;;18.54;78.43
788;BME280;16074;42.708;23.312;2022-09-09T03:51:38;142804.47;;;18.57;79.50
788;BME280;16074;42.708;23.312;2022-09-09T03:54:09;142774.13;;;18.45;79.22
788;BME280;16074;42.708;23.312;2022-09-09T03:56:37;142793.53;;;18.53;79.23
788;BME280;16074;42.708;23.312;2022-09-09T03:59:10;142792.34;;;18.52;79.10
788;BME280;16074;42.708;23.312;2022-09-09T04:01:38;142799.63;;;18.55;79.12
788;BME280;16074;42.708;23.312;2022-09-09T04:04:08;142795.94;;;18.54;78.49
788;BME280;16074;42.708;23.312;2022-09-09T04:06:36;142802.03;;;18.56;78.77
788;BME280;16074;42.708;23.312;2022-09-09T04:09:04;142794.75;;;18.53;78.43
788;BME280;16074;42.708;23.312;2022-09-09T04:11:33;142763.22;;;18.40;78.79
788;BME280;16074;42.708;23.312;2022-09-09T04:14:02;142782.63;;;18.48;79.47
788;BME280;16074;42.708;23.312;2022-09-09T04:16:31;142791.09;;;18.52;79.23
788;BME280;16074;42.708;23.312;2022-09-09T04:18:59;142768.06;;;18.42;78.23
788;BME280;16074;42.708;23.312;2022-09-09T04:21:29;142786.25;;;18.50;79.32
788;BME280;16074;42.708;23.312;2022-09-09T04:23:59;142791.09;;;18.52;79.41
788;BME280;16074;42.708;23.312;2022-09-09T04:26:27;142789.91;;;18.51;78.71
788;BME280;16074;42.708;23.312;2022-09-09T04:28:55;142775.34;;;18.45;79.47
788;BME280;16074;42.708;23.312;2022-09-09T04:31:23;142798.38;;;18.55;79.48
788;BME280;16074;42.708;23.312;2022-09-09T04:33:55;142787.47;;;18.50;79.08
788;BME280;16074;42.708;23.312;2022-09-09T04:36:24;142787.47;;;18.50;78.54
788;BME280;16074;42.708;23.312;2022-09-09T04:38:58;142780.19;;;18.47;78.43
788;BME280;16074;42.708;23.312;2022-09-09T04:41:28;142794.75;;;18.53;78.92
788;BME280;16074;42.708;23.312;2022-09-09T04:43:58;142805.66;;;18.58;78.74
788;BME280;16074;42.708;23.312;2022-09-09T04:46:27;142808.09;;;18.59;77.86
788;BME280;16074;42.708;23.312;2022-09-09T04:48:56;142821.47;;;18.64;77.70
788;BME280;16074;42.708;23.312;2022-09-09T04:51:29;142826.31;;;18.66;77.44
788;BME280;16074;42.708;23.312;2022-09-09T04:53:59;142834.78;;;18.70;77.80
788;BME280;16074;42.708;23.312;2022-09-09T04:56:27;142854.19;;;18.78;78.32
788;BME280;16074;42.708;23.312;2022-09-09T04:58:57;142856.63;;;18.79;78.00
788;BME280;16074;42.708;23.312;2022-09-09T05:01:35;142815.38;;;18.62;76.71
788;BME280;16074;42.708;23.312;2022-09-09T05:04:04;142831.16;;;18.68;76.73
788;BME280;16074;42.708;23.312;2022-09-09T05:06:34;142846.91;;;18.75;77.00
788;BME280;16074;42.708;23.312;2022-09-09T05:09:05;142854.19;;;18.78;76.90
788;BME280;16074;42.708;23.312;2022-09-09T05:11:34;142860.25;;;18.80;77.38
788;BME280;16074;42.708;23.312;2022-09-09T05:14:08;142867.53;;;18.83;77.65
788;BME280;16074;42.708;23.312;2022-09-09T05:16:38;142889.38;;;18.92;77.17
788;BME280;16074;42.708;23.312;2022-09-09T05:19:07;142902.75;;;18.98;77.74
788;BME280;16074;42.708;23.312;2022-09-09T05:21:43;142912.41;;;19.02;77.31
788;BME280;16074;42.708;23.312;2022-09-09T05:24:13;142907.53;;;19.00;76.51
788;BME280;16074;42.708;23.312;2022-09-09T05:26:42;142924.53;;;19.07;76.47
788;BME280;16074;42.708;23.312;2022-09-09T05:29:10;142935.50;;;19.11;76.66
788;BME280;16074;42.708;23.312;2022-09-09T05:31:38;142951.28;;;19.18;76.10
788;BME280;16074;42.708;23.312;2022-09-09T05:34:12;142969.53;;;19.25;76.24
788;BME280;16074;42.708;23.312;2022-09-09T05:36:40;142969.53;;;19.25;75.73
788;BME280;16074;42.708;23.312;2022-09-09T05:39:09;142991.34;;;19.34;75.04
788;BME280;16074;42.708;23.312;2022-09-09T05:41:40;143005.91;;;19.40;75.18
788;BME280;16074;42.708;23.312;2022-09-09T05:44:08;143012.00;;;19.42;75.01
788;BME280;16074;42.708;23.312;2022-09-09T05:46:38;143018.03;;;19.45;74.54
788;BME280;16074;42.708;23.312;2022-09-09T05:49:06;143045.94;;;19.56;75.03
788;BME280;16074;42.708;23.312;2022-09-09T05:51:35;143052.03;;;19.59;74.57
788;BME280;16074;42.708;23.312;2022-09-09T05:54:08;143071.47;;;19.67;73.86
788;BME280;16074;42.708;23.312;2022-09-09T05:56:43;143099.38;;;19.78;73.20
788;BME280;16074;42.708;23.312;2022-09-09T05:59:16;143090.91;;;19.75;72.92
788;BME280;16074;42.708;23.312;2022-09-09T06:01:45;143109.09;;;19.82;72.76
788;BME280;16074;42.708;23.312;2022-09-09T06:04:20;143130.97;;;19.91;72.13
788;BME280;16074;42.708;23.312;2022-09-09T06:06:51;143154.06;;;20.01;71.95
788;BME280;16074;42.708;23.312;2022-09-09T06:09:21;143154.06;;;20.01;70.62
788;BME280;16074;42.708;23.312;2022-09-09T06:11:51;143144.31;;;19.97;69.56
788;BME280;16074;42.708;23.312;2022-09-09T06:14:20;143169.88;;;20.07;69.41
788;BME280;16074;42.708;23.312;2022-09-09T06:16:51;143190.50;;;20.16;68.92
788;BME280;16074;42.708;23.312;2022-09-09T06:19:26;143192.94;;;20.17;68.13
788;BME280;16074;42.708;23.312;2022-09-09T06:21:57;143194.13;;;20.17;67.41
788;BME280;16074;42.708;23.312;2022-09-09T06:24:26;143197.81;;;20.19;67.45
788;BME280;16074;42.708;23.312;2022-09-09T06:26:58;143242.72;;;20.37;67.46
788;BME280;16074;42.708;23.312;2022-09-09T06:29:31;143276.75;;;20.51;67.26
788;BME280;16074;42.708;23.312;2022-09-09T06:31:59;143307.13;;;20.63;66.87
788;BME280;16074;42.708;23.312;2022-09-09T06:34:27;143339.91;;;20.77;66.49
788;BME280;16074;42.708;23.312;2022-09-09T06:36:57;143364.28;;;20.87;65.51
788;BME280;16074;42.708;23.312;2022-09-09T06:39:32;143401.94;;;21.02;65.41
788;BME280;16074;42.708;23.312;2022-09-09T06:42:02;143423.81;;;21.11;64.99
788;BME280;16074;42.708;23.312;2022-09-09T06:44:51;143473.66;;;21.32;64.36
788;BME280;16074;42.708;23.312;2022-09-09T06:47:33;143524.75;;;21.53;63.33
788;BME280;16074;42.708;23.312;2022-09-09T06:50:02;143555.19;;;21.65;60.77
788;BME280;16074;42.708;23.312;2022-09-09T06:52:33;143555.19;;;21.65;58.44
788;BME280;16074;42.708;23.312;2022-09-09T06:55:03;143589.25;;;21.79;57.75
788;BME280;16074;42.708;23.312;2022-09-09T06:57:34;143609.91;;;21.87;57.75
788;BME280;16074;42.708;23.312;2022-09-09T07:00:18;143663.44;;;22.09;57.46
788;BME280;16074;42.708;23.312;2022-09-09T07:02:46;143693.84;;;22.22;57.37
788;BME280;16074;42.708;23.312;2022-09-09T07:05:14;143763.25;;;22.50;56.30
788;BME280;16074;42.708;23.312;2022-09-09T07:07:45;143819.25;;;22.73;55.33
788;BME280;16074;42.708;23.312;2022-09-09T07:10:15;143863.09;;;22.91;55.43
788;BME280;16074;42.708;23.312;2022-09-09T07:12:50;143894.69;;;23.04;54.41
788;BME280;16074;42.708;23.312;2022-09-09T07:15:21;143936.16;;;23.21;53.65
788;BME280;16074;42.708;23.312;2022-09-09T07:17:49;144006.81;;;23.50;52.69
788;BME280;16074;42.708;23.312;2022-09-09T07:20:17;144008.00;;;23.50;52.68
788;BME280;16074;42.708;23.312;2022-09-09T07:22:46;144105.50;;;23.90;52.43
788;BME280;16074;42.708;23.312;2022-09-09T07:25:14;144148.19;;;24.08;50.34
788;BME280;16074;42.708;23.312;2022-09-09T07:27:46;144243.22;;;24.46;50.34
788;BME280;16074;42.708;23.312;2022-09-09T07:30:15;144299.31;;;24.69;49.93
788;BME280;16074;42.708;23.312;2022-09-09T07:32:51;144401.78;;;25.11;50.21
788;BME280;16074;42.708;23.312;2022-09-09T07:35:20;144462.78;;;25.36;48.82
788;BME280;16074;42.708;23.312;2022-09-09T07:37:48;144471.34;;;25.40;48.15
788;BME280;16074;42.708;23.312;2022-09-09T07:40:19;144559.16;;;25.75;48.43
788;BME280;16074;42.708;23.312;2022-09-09T07:42:50;144632.47;;;26.05;47.15
788;BME280;16074;42.708;23.312;2022-09-09T07:45:18;144670.28;;;26.21;46.59
788;BME280;16074;42.708;23.312;2022-09-09T07:47:46;144728.91;;;26.45;45.75
788;BME280;16074;42.708;23.312;2022-09-09T07:50:15;144785.06;;;26.68;45.27
788;BME280;16074;42.708;23.312;2022-09-09T07:52:44;144896.28;;;27.13;45.17
788;BME280;16074;42.708;23.312;2022-09-09T07:55:12;144972.00;;;27.44;44.44
788;BME280;16074;42.708;23.312;2022-09-09T07:57:40;145094.25;;;27.94;43.51
788;BME280;16074;42.708;23.312;2022-09-09T08:00:14;145214.09;;;28.42;42.79
788;BME280;16074;42.708;23.312;2022-09-09T08:02:47;145277.69;;;28.68;41.91
788;BME280;16074;42.708;23.312;2022-09-09T08:05:16;145400.06;;;29.18;41.01
788;BME280;16074;42.708;23.312;2022-09-09T08:07:45;145409.84;;;29.22;40.48
788;BME280;16074;42.708;23.312;2022-09-09T08:10:14;145435.53;;;29.32;40.32
788;BME280;16074;42.708;23.312;2022-09-09T08:12:44;145393.97;;;29.16;40.31
788;BME280;16074;42.708;23.312;2022-09-09T08:15:34;145466.19;;;29.45;40.32
788;BME280;16074;42.708;23.312;2022-09-09T08:18:03;145493.09;;;29.56;39.78
788;BME280;16074;42.708;23.312;2022-09-09T08:20:33;145493.09;;;29.56;39.54
788;BME280;16074;42.708;23.312;2022-09-09T08:23:03;145501.69;;;29.59;40.20
788;BME280;16074;42.708;23.312;2022-09-09T08:25:31;145490.63;;;29.55;40.24
788;BME280;16074;42.708;23.312;2022-09-09T08:28:01;145586.13;;;29.94;39.87
788;BME280;16074;42.708;23.312;2022-09-09T08:30:30;145657.16;;;30.23;39.45
788;BME280;16074;42.708;23.312;2022-09-09T08:33:00;145629.03;;;30.11;38.58
788;BME280;16074;42.708;23.312;2022-09-09T08:35:29;145649.81;;;30.20;39.00
788;BME280;16074;42.708;23.312;2022-09-09T08:37:59;145666.97;;;30.27;38.59
788;BME280;16074;42.708;23.312;2022-09-09T08:40:35;145665.75;;;30.26;38.54
788;BME280;16074;42.708;23.312;2022-09-09T08:43:07;145626.56;;;30.10;38.33
788;BME280;16074;42.708;23.312;2022-09-09T08:45:43;145580.00;;;29.91;39.03
788;BME280;16074;42.708;23.312;2022-09-09T08:48:36;145556.75;;;29.82;39.21
788;BME280;16074;42.708;23.312;2022-09-09T08:51:09;145518.81;;;29.66;40.00
788;BME280;16074;42.708;23.312;2022-09-09T08:53:42;145537.16;;;29.74;39.66
788;BME280;16074;42.708;23.312;2022-09-09T08:56:16;145556.75;;;29.82;39.05
788;BME280;16074;42.708;23.312;2022-09-09T08:58:49;145586.13;;;29.94;38.51
788;BME280;16074;42.708;23.312;2022-09-09T09:01:34;145528.59;;;29.70;39.71
788;BME280;16074;42.708;23.312;2022-09-09T09:04:26;145570.19;;;29.87;40.23
788;BME280;16074;42.708;23.312;2022-09-09T09:07:06;145638.81;;;30.15;39.63
788;BME280;16074;42.708;23.312;2022-09-09T09:09:42;145708.63;;;30.44;39.57
788;BME280;16074;42.708;23.312;2022-09-09T09:12:16;145698.81;;;30.40;38.78
788;BME280;16074;42.708;23.312;2022-09-09T09:14:47;145722.06;;;30.49;38.47
788;BME280;16074;42.708;23.312;2022-09-09T09:17:18;145689.00;;;30.36;38.14
788;BME280;16074;42.708;23.312;2022-09-09T09:19:49;145641.28;;;30.16;38.80
788;BME280;16074;42.708;23.312;2022-09-09T09:22:19;145540.81;;;29.75;39.54
788;BME280;16074;42.708;23.312;2022-09-09T09:24:54;145502.88;;;29.60;39.43
788;BME280;16074;42.708;23.312;2022-09-09T09:27:31;145518.81;;;29.66;39.93
788;BME280;16074;42.708;23.312;2022-09-09T09:30:12;145535.97;;;29.73;39.72
788;BME280;16074;42.708;23.312;2022-09-09T09:32:59;145311.94;;;28.82;41.58
788;BME280;16074;42.708;23.312;2022-09-09T09:35:31;145402.50;;;29.19;40.82
788;BME280;16074;42.708;23.312;2022-09-09T09:38:15;145378.03;;;29.09;40.83
788;BME280;16074;42.708;23.312;2022-09-09T09:41:05;145385.38;;;29.12;40.87
788;BME280;16074;42.708;23.312;2022-09-09T09:43:34;145378.03;;;29.09;41.72
788;BME280;16074;42.708;23.312;2022-09-09T09:46:21;145422.09;;;29.27;42.08
788;BME280;16074;42.708;23.312;2022-09-09T09:48:56;145447.75;;;29.37;41.18
788;BME280;16074;42.708;23.312;2022-09-09T09:51:28;145429.44;;;29.30;41.10
788;BME280;16074;42.708;23.312;2022-09-09T09:54:12;145428.19;;;29.29;40.75
788;BME280;16074;42.708;23.312;2022-09-09T09:56:47;145418.38;;;29.25;40.64
788;BME280;16074;42.708;23.312;2022-09-09T09:59:21;145418.38;;;29.25;40.96
788;BME280;16074;42.708;23.312;2022-09-09T10:02:19;145422.09;;;29.27;41.66
788;BME280;16074;42.708;23.312;2022-09-09T10:05:01;145449.00;;;29.38;42.11
788;BME280;16074;42.708;23.312;2022-09-09T10:07:33;145482.09;;;29.51;41.85
788;BME280;16074;42.708;23.312;2022-09-09T10:10:05;145493.09;;;29.56;41.67
788;BME280;16074;42.708;23.312;2022-09-09T10:12:42;145520.00;;;29.67;41.40
788;BME280;16074;42.708;23.312;2022-09-09T10:15:37;145531.06;;;29.71;41.56
788;BME280;16074;42.708;23.312;2022-09-09T10:18:29;145518.81;;;29.66;41.19
788;BME280;16074;42.708;23.312;2022-09-09T10:21:11;145506.56;;;29.61;41.68
788;BME280;16074;42.708;23.312;2022-09-09T10:23:58;145495.53;;;29.57;41.37
788;BME280;16074;42.708;23.312;2022-09-09T10:26:39;145500.44;;;29.59;40.99
788;BME280;16074;42.708;23.312;2022-09-09T10:29:34;145477.19;;;29.49;41.86
788;BME280;16074;42.708;23.312;2022-09-09T10:32:30;145474.75;;;29.48;41.92
788;BME280;16074;42.708;23.312;2022-09-09T10:35:08;145452.66;;;29.39;42.45
788;BME280;16074;42.708;23.312;2022-09-09T10:40:32;145411.03;;;29.23;42.36
788;BME280;16074;42.708;23.312;2022-09-09T10:43:11;145392.72;;;29.15;42.62
788;BME280;16074;42.708;23.312;2022-09-09T10:45:49;145369.47;;;29.06;42.77
788;BME280;16074;42.708;23.312;2022-09-09T10:48:39;145363.34;;;29.03;42.38
788;BME280;16074;42.708;23.312;2022-09-09T10:51:21;145352.34;;;28.99;42.44
788;BME280;16074;42.708;23.312;2022-09-09T10:53:58;145330.31;;;28.90;42.23
788;BME280;16074;42.708;23.312;2022-09-09T10:56:32;145315.59;;;28.84;42.85
788;BME280;16074;42.708;23.312;2022-09-09T10:59:04;145309.50;;;28.81;43.20
788;BME280;16074;42.708;23.312;2022-09-09T11:01:39;145311.94;;;28.82;43.65
788;BME280;16074;42.708;23.312;2022-09-09T11:04:13;145316.84;;;28.84;43.77
788;BME280;16074;42.708;23.312;2022-09-09T11:06:46;145293.56;;;28.75;43.97
788;BME280;16074;42.708;23.312;2022-09-09T11:09:22;145275.25;;;28.67;43.72
788;BME280;16074;42.708;23.312;2022-09-09T11:11:54;145282.59;;;28.70;43.67
788;BME280;16074;42.708;23.312;2022-09-09T11:14:28;145232.47;;;28.50;44.52
788;BME280;16074;42.708;23.312;2022-09-09T11:17:06;145244.69;;;28.55;44.79
788;BME280;16074;42.708;23.312;2022-09-09T11:19:39;145264.22;;;28.63;44.49
788;BME280;16074;42.708;23.312;2022-09-09T11:22:16;145275.25;;;28.67;45.43
788;BME280;16074;42.708;23.312;2022-09-09T11:24:49;145285.03;;;28.71;45.32
788;BME280;16074;42.708;23.312;2022-09-09T11:27:26;145291.13;;;28.74;44.70
788;BME280;16074;42.708;23.312;2022-09-09T11:30:20;145309.50;;;28.81;44.91
788;BME280;16074;42.708;23.312;2022-09-09T11:33:33;145318.09;;;28.85;44.95
788;BME280;16074;42.708;23.312;2022-09-09T11:36:22;145320.53;;;28.86;45.26
788;BME280;16074;42.708;23.312;2022-09-09T11:38:56;145348.66;;;28.97;45.54
788;BME280;16074;42.708;23.312;2022-09-09T11:41:34;145370.69;;;29.06;45.36
788;BME280;16074;42.708;23.312;2022-09-09T11:44:11;145385.38;;;29.12;45.25
788;BME280;16074;42.708;23.312;2022-09-09T11:46:41;145376.81;;;29.09;44.35
788;BME280;16074;42.708;23.312;2022-09-09T11:49:26;145408.59;;;29.22;44.84
788;BME280;16074;42.708;23.312;2022-09-09T11:51:54;145412.28;;;29.23;44.22
788;BME280;16074;42.708;23.312;2022-09-09T11:54:28;145418.38;;;29.25;44.74
788;BME280;16074;42.708;23.312;2022-09-09T11:56:57;145467.41;;;29.45;45.14
788;BME280;16074;42.708;23.312;2022-09-09T11:59:29;145522.47;;;29.68;45.13
788;BME280;16074;42.708;23.312;2022-09-09T12:01:59;145556.75;;;29.82;43.68
788;BME280;16074;42.708;23.312;2022-09-09T12:04:32;145654.72;;;30.22;43.24
788;BME280;16074;42.708;23.312;2022-09-09T12:07:03;145766.22;;;30.67;42.88
788;BME280;16074;42.708;23.312;2022-09-09T12:09:44;145878.97;;;31.13;40.67
788;BME280;16074;42.708;23.312;2022-09-09T12:12:26;146051.78;;;31.83;40.47
788;BME280;16074;42.708;23.312;2022-09-09T12:14:58;146164.69;;;32.29;40.06
788;BME280;16074;42.708;23.312;2022-09-09T12:17:28;146191.63;;;32.40;39.21
788;BME280;16074;42.708;23.312;2022-09-09T12:20:01;146272.66;;;32.73;38.63
788;BME280;16074;42.708;23.312;2022-09-09T12:22:40;146315.56;;;32.90;38.97
788;BME280;16074;42.708;23.312;2022-09-09T12:25:18;146349.94;;;33.04;38.86
788;BME280;16074;42.708;23.312;2022-09-09T12:28:00;146381.84;;;33.17;38.85
788;BME280;16074;42.708;23.312;2022-09-09T12:30:37;146412.56;;;33.29;37.82
788;BME280;16074;42.708;23.312;2022-09-09T12:33:11;146532.91;;;33.78;37.35
788;BME280;16074;42.708;23.312;2022-09-09T12:35:43;146590.59;;;34.02;37.00
788;BME280;16074;42.708;23.312;2022-09-09T12:38:15;146545.16;;;33.83;36.87
788;BME280;16074;42.708;23.312;2022-09-09T12:40:54;146556.19;;;33.88;37.73
788;BME280;16074;42.708;23.312;2022-09-09T12:43:25;146550.09;;;33.85;37.91
788;BME280;16074;42.708;23.312;2022-09-09T12:45:57;146542.72;;;33.82;37.61
788;BME280;16074;42.708;23.312;2022-09-09T12:48:31;146545.16;;;33.83;37.44
788;BME280;16074;42.708;23.312;2022-09-09T12:51:02;146516.91;;;33.72;38.17
788;BME280;16074;42.708;23.312;2022-09-09T12:53:34;146435.88;;;33.39;37.67
788;BME280;16074;42.708;23.312;2022-09-09T12:56:05;146455.50;;;33.47;38.24
788;BME280;16074;42.708;23.312;2022-09-09T12:58:36;146498.50;;;33.64;38.36
788;BME280;16074;42.708;23.312;2022-09-09T13:01:20;146446.88;;;33.43;37.29
788;BME280;16074;42.708;23.312;2022-09-09T13:03:49;146412.56;;;33.29;37.80
788;BME280;16074;42.708;23.312;2022-09-09T13:06:20;146433.41;;;33.38;37.32
788;BME280;16074;42.708;23.312;2022-09-09T13:08:56;146402.75;;;33.25;38.03
788;BME280;16074;42.708;23.312;2022-09-09T13:11:28;146413.78;;;33.30;38.22
788;BME280;16074;42.708;23.312;2022-09-09T13:13:58;146351.16;;;33.05;37.64
788;BME280;16074;42.708;23.312;2022-09-09T13:16:29;146254.22;;;32.65;38.09
788;BME280;16074;42.708;23.312;2022-09-09T13:19:00;146081.22;;;31.95;39.09
788;BME280;16074;42.708;23.312;2022-09-09T13:21:33;145925.53;;;31.32;40.74
788;BME280;16074;42.708;23.312;2022-09-09T13:24:01;145838.50;;;30.96;41.41
788;BME280;16074;42.708;23.312;2022-09-09T13:26:31;145822.53;;;30.90;41.95
788;BME280;16074;42.708;23.312;2022-09-09T13:29:14;145777.22;;;30.71;42.96
788;BME280;16074;42.708;23.312;2022-09-09T13:31:46;145762.53;;;30.65;42.32
788;BME280;16074;42.708;23.312;2022-09-09T13:34:27;145724.50;;;30.50;43.13
788;BME280;16074;42.708;23.312;2022-09-09T13:36:59;145617.97;;;30.07;43.38
788;BME280;16074;42.708;23.312;2022-09-09T13:39:29;145495.53;;;29.57;44.58